Time;durP1;ratioP1;P1;durP2;ratioP2;P2;SDS_P1;SDS_P2;PMS_P1;PMS_P2;Temp;Humidity;BMP_temperature;BMP_pressure;BME280_temperature;BME280_humidity;BME280_pressure;Samples;Min_cycle;Max_cycle;Signal;HPM_P1;HPM_P2
2024/01/26 00:02:05;;;;;;;0.20;0.20;;;;;;;5.99;67.97;94948.91;5050105;28;20214;-77
2024/01/26 00:04:33;;;;;;;0.20;0.20;;;;;;;6.03;68.25;94956.09;5050735;28;20215;-77
2024/01/26 00:07:01;;;;;;;0.30;0.30;;;;;;;6.04;68.13;94965.75;5035954;28;20215;-77
2024/01/26 00:09:28;;;;;;;0.20;0.20;;;;;;;6.10;67.10;94965.69;5039582;28;20216;-78
2024/01/26 00:11:54;;;;;;;0.20;0.20;;;;;;;5.94;68.69;94973.16;5050749;28;20326;-77
2024/01/26 00:14:21;;;;;;;0.20;0.20;;;;;;;6.03;67.81;94968.72;5050733;28;20211;-77
2024/01/26 00:16:48;;;;;;;0.20;0.20;;;;;;;6.01;68.62;94973.63;5037624;28;20570;-76
2024/01/26 00:19:16;;;;;;;0.20;0.20;;;;;;;6.05;67.92;94974.63;5050659;28;20571;-77
2024/01/26 00:21:43;;;;;;;0.20;0.20;;;;;;;6.13;68.42;94971.28;5050361;28;20204;-77
2024/01/26 00:24:12;;;;;;;0.20;0.20;;;;;;;6.11;68.42;94972.66;5050558;28;20238;-77
2024/01/26 00:26:38;;;;;;;0.63;0.63;;;;;;;5.94;68.24;94973.16;5049749;28;20239;-77
2024/01/26 00:29:06;;;;;;;0.65;0.65;;;;;;;5.87;68.39;94967.31;5051050;28;20555;-76
2024/01/26 00:31:33;;;;;;;0.20;0.20;;;;;;;5.89;68.57;94981.28;5050285;28;20692;-76
2024/01/26 00:34:00;;;;;;;0.20;0.20;;;;;;;5.98;68.46;94974.19;5050317;28;20315;-77
2024/01/26 00:36:27;;;;;;;0.20;0.20;;;;;;;5.96;68.58;94987.13;5050763;28;20207;-77
2024/01/26 00:38:53;;;;;;;0.20;0.20;;;;;;;5.96;68.52;94987.13;5035955;28;20227;-74
2024/01/26 00:41:25;;;;;;;0.20;0.20;;;;;;;5.82;68.20;94976.25;5048934;28;20210;-74
2024/01/26 00:43:52;;;;;;;0.20;0.20;;;;;;;5.97;67.96;94983.34;5050187;28;20261;-75
2024/01/26 00:46:18;;;;;;;0.20;0.20;;;;;;;5.93;67.93;94985.81;5049987;28;20214;-75
2024/01/26 00:48:46;;;;;;;0.25;0.25;;;;;;;5.82;68.44;94975.44;5052470;28;20215;-76
2024/01/26 00:51:13;;;;;;;0.28;0.28;;;;;;;5.88;67.47;94975.09;5053390;28;20228;-75
2024/01/26 00:53:40;;;;;;;0.20;0.20;;;;;;;6.03;68.36;94982.16;5054237;28;20587;-74
2024/01/26 00:56:07;;;;;;;0.20;0.20;;;;;;;5.88;67.23;94982.34;5054042;28;20214;-75
2024/01/26 00:58:35;;;;;;;0.20;0.20;;;;;;;5.83;67.28;94974.38;5052779;28;20563;-74
2024/01/26 01:01:03;;;;;;;0.20;0.20;;;;;;;5.84;66.80;94981.34;5053445;28;20230;-75
2024/01/26 01:03:33;;;;;;;0.20;0.20;;;;;;;5.79;67.50;94976.03;5053343;28;20245;-74
2024/01/26 01:06:00;;;;;;;0.20;0.20;;;;;;;5.90;66.82;94966.75;5041959;28;20222;-75
2024/01/26 01:08:27;;;;;;;0.20;0.20;;;;;;;5.71;67.08;94970.22;5053072;28;20204;-75
2024/01/26 01:10:53;;;;;;;0.20;0.20;;;;;;;5.50;67.56;94973.41;5053453;28;20270;-75
2024/01/26 01:13:21;;;;;;;0.20;0.20;;;;;;;5.50;68.00;94974.22;5053438;28;20208;-74
2024/01/26 01:15:49;;;;;;;0.30;0.30;;;;;;;5.52;68.54;94960.50;5052673;28;20223;-75
2024/01/26 01:18:16;;;;;;;0.20;0.20;;;;;;;5.43;67.56;94957.66;5053362;28;20211;-73
2024/01/26 01:20:43;;;;;;;0.20;0.20;;;;;;;5.32;67.84;94950.81;5053451;28;20294;-73
2024/01/26 01:23:09;;;;;;;0.35;0.35;;;;;;;5.41;67.77;94950.97;5050614;28;20219;-76
2024/01/26 01:25:39;;;;;;;0.20;0.20;;;;;;;5.42;68.30;94948.00;5041765;28;20626;-75
2024/01/26 01:28:07;;;;;;;0.20;0.20;;;;;;;5.29;68.26;94952.19;5052843;28;20249;-75
2024/01/26 01:30:34;;;;;;;0.25;0.25;;;;;;;5.33;68.43;94945.13;5053670;28;20234;-75
2024/01/26 01:33:04;;;;;;;0.20;0.20;;;;;;;5.44;68.24;94937.78;5053185;28;20648;-73
2024/01/26 01:35:31;;;;;;;0.20;0.20;;;;;;;5.31;68.44;94925.84;5051882;28;20695;-74
2024/01/26 01:37:58;;;;;;;0.20;0.20;;;;;;;5.24;68.82;94940.69;5045196;28;20645;-73
2024/01/26 01:40:25;;;;;;;0.32;0.32;;;;;;;5.31;68.41;94939.25;5043093;28;20230;-76
2024/01/26 01:42:54;;;;;;;0.30;0.20;;;;;;;5.22;68.63;94942.84;5051970;28;20264;-74
2024/01/26 01:45:21;;;;;;;0.30;0.30;;;;;;;5.22;68.92;94946.34;5051897;28;20208;-74
2024/01/26 01:47:48;;;;;;;0.25;0.25;;;;;;;5.19;69.05;94941.56;5051610;28;20223;-75
2024/01/26 01:50:16;;;;;;;0.30;0.30;;;;;;;5.25;69.16;94972.63;5052893;28;20219;-75
2024/01/26 01:52:46;;;;;;;0.40;0.40;;;;;;;5.27;69.02;94945.50;5052431;28;20235;-73
2024/01/26 01:55:31;;;;;;;0.20;0.20;;;;;;;5.29;69.23;94956.75;5052178;28;20215;-74
2024/01/26 01:57:58;;;;;;;0.30;0.30;;;;;;;5.26;69.86;94984.16;5050673;28;20294;-75
2024/01/26 02:00:25;;;;;;;0.85;0.30;;;;;;;5.23;69.67;94982.03;5050615;28;20200;-74
2024/01/26 02:02:53;;;;;;;0.20;0.20;;;;;;;5.40;69.29;94981.59;5050667;28;20227;-74
2024/01/26 02:05:21;;;;;;;3.53;3.33;;;;;;;5.45;68.89;94966.25;5050656;28;20212;-76
2024/01/26 02:07:49;;;;;;;0.20;0.20;;;;;;;5.27;69.40;94980.41;5051000;28;20215;-76
2024/01/26 02:10:16;;;;;;;0.40;0.40;;;;;;;5.27;70.11;94980.41;5051282;28;20242;-75
2024/01/26 02:12:43;;;;;;;0.38;0.38;;;;;;;5.30;69.19;94974.47;5052180;28;20231;-75
2024/01/26 02:15:10;;;;;;;0.20;0.20;;;;;;;5.31;69.45;94982.25;5052314;28;20215;-75
2024/01/26 02:17:39;;;;;;;0.22;0.22;;;;;;;5.33;68.74;94974.66;5051862;28;20211;-74
2024/01/26 02:20:07;;;;;;;0.20;0.20;;;;;;;5.39;68.71;94972.75;5052227;28;20235;-74
2024/01/26 02:22:35;;;;;;;0.20;0.20;;;;;;;5.39;68.61;94982.69;5052316;28;20299;-74
2024/01/26 02:25:04;;;;;;;0.68;0.68;;;;;;;5.27;68.47;94980.41;5051677;28;20697;-74
2024/01/26 02:27:31;;;;;;;0.22;0.22;;;;;;;5.41;67.66;94981.31;5051574;28;20571;-75
2024/01/26 02:29:58;;;;;;;0.20;0.20;;;;;;;5.44;67.78;94988.81;5052303;28;20208;-73
2024/01/26 02:32:24;;;;;;;0.20;0.20;;;;;;;5.40;67.50;94984.28;5052290;28;20227;-76
2024/01/26 02:34:51;;;;;;;0.20;0.20;;;;;;;5.32;67.79;94983.03;5051810;28;20258;-76
2024/01/26 02:37:18;;;;;;;0.20;0.20;;;;;;;5.41;67.63;94980.53;5050500;28;20216;-75
2024/01/26 02:39:45;;;;;;;0.22;0.22;;;;;;;5.33;67.33;94980.03;5036739;28;20207;-76
2024/01/26 02:42:13;;;;;;;0.20;0.20;;;;;;;5.47;67.13;94980.16;5051807;28;20207;-75
2024/01/26 02:44:40;;;;;;;1.65;0.68;;;;;;;5.26;67.44;94984.16;5051458;28;20257;-76
2024/01/26 02:47:07;;;;;;;0.20;0.20;;;;;;;5.35;67.27;94967.13;5052035;28;20207;-75
2024/01/26 02:49:34;;;;;;;0.30;0.30;;;;;;;5.55;67.02;94976.84;5051290;28;20219;-75
2024/01/26 02:52:00;;;;;;;0.30;0.30;;;;;;;5.35;66.42;94977.06;5051748;28;20238;-74
2024/01/26 02:54:28;;;;;;;0.20;0.20;;;;;;;5.47;66.19;94964.03;5051367;28;20207;-74
2024/01/26 02:56:56;;;;;;;1.75;1.65;;;;;;;5.56;66.77;94972.28;5050755;28;20218;-74
2024/01/26 02:59:24;;;;;;;0.20;0.20;;;;;;;5.62;66.54;94989.94;5051174;28;20234;-76
2024/01/26 03:01:51;;;;;;;0.20;0.20;;;;;;;5.60;66.31;94990.22;5052031;28;20208;-75
2024/01/26 03:04:19;;;;;;;6.82;1.55;;;;;;;5.74;65.94;94986.84;5051390;28;20593;-74
2024/01/26 03:06:46;;;;;;;0.20;0.20;;;;;;;5.67;66.25;95006.81;5051915;28;20254;-75
2024/01/26 03:09:13;;;;;;;0.20;0.20;;;;;;;5.58;66.24;94996.97;5045031;28;20208;-76
2024/01/26 03:11:43;;;;;;;0.20;0.20;;;;;;;5.66;65.96;94997.13;5030320;28;20244;-75
2024/01/26 03:14:10;;;;;;;0.20;0.20;;;;;;;5.80;66.10;94993.75;5051391;28;20640;-75
2024/01/26 03:16:40;;;;;;;0.30;0.30;;;;;;;5.75;66.08;95002.66;5051234;28;20215;-74
2024/01/26 03:19:08;;;;;;;0.20;0.20;;;;;;;5.72;66.24;94993.31;5050715;28;20239;-74
2024/01/26 03:21:34;;;;;;;0.20;0.20;;;;;;;5.62;66.04;94998.00;5051367;28;20306;-75
2024/01/26 03:24:02;;;;;;;0.20;0.20;;;;;;;5.69;66.22;94999.25;5050974;28;20207;-75
2024/01/26 03:26:29;;;;;;;0.20;0.20;;;;;;;5.63;66.45;94992.34;5050727;28;20216;-73
2024/01/26 03:28:56;;;;;;;0.20;0.20;;;;;;;5.67;66.68;95006.81;5050631;28;20261;-75
2024/01/26 03:31:22;;;;;;;0.73;0.73;;;;;;;5.61;67.42;95002.56;5051457;28;20211;-75
2024/01/26 03:33:50;;;;;;;0.20;0.20;;;;;;;5.60;66.79;95000.97;5051055;28;20595;-75
2024/01/26 03:36:17;;;;;;;0.20;0.20;;;;;;;5.60;67.02;94995.59;5051125;28;20265;-74
2024/01/26 03:38:44;;;;;;;0.20;0.20;;;;;;;5.66;66.90;94997.13;5037442;28;20575;-75
2024/01/26 03:41:11;;;;;;;0.30;0.30;;;;;;;5.64;66.61;94995.81;5047391;28;20294;-75
2024/01/26 03:43:38;;;;;;;0.20;0.20;;;;;;;5.67;67.33;94996.06;5041090;28;20219;-74
2024/01/26 03:46:05;;;;;;;0.20;0.20;;;;;;;5.66;67.20;94993.66;5050186;28;20207;-73
2024/01/26 03:48:33;;;;;;;0.20;0.20;;;;;;;5.67;66.75;94990.69;5051147;28;20212;-75
2024/01/26 03:51:01;;;;;;;0.30;0.30;;;;;;;5.60;67.66;94995.59;5033354;28;20645;-74
2024/01/26 03:53:28;;;;;;;0.40;0.40;;;;;;;5.67;66.82;94993.38;5041649;28;20591;-73
2024/01/26 03:55:55;;;;;;;0.20;0.20;;;;;;;5.64;66.88;94993.94;5050916;28;20215;-74
2024/01/26 03:58:22;;;;;;;0.20;0.20;;;;;;;5.57;67.02;94985.44;5050771;28;20651;-74
2024/01/26 04:00:49;;;;;;;0.30;0.30;;;;;;;5.56;66.88;94994.56;5049836;28;20199;-76
2024/01/26 04:03:16;;;;;;;0.30;0.30;;;;;;;5.60;66.89;94994.81;5050746;28;20253;-75
2024/01/26 04:05:43;;;;;;;0.25;0.25;;;;;;;5.49;66.34;94972.63;5050636;28;20211;-74
2024/01/26 04:08:12;;;;;;;0.20;0.20;;;;;;;5.71;66.58;94999.78;5050646;28;20693;-74
2024/01/26 04:10:38;;;;;;;0.20;0.20;;;;;;;5.55;66.41;94992.97;5049933;28;20267;-74
2024/01/26 04:13:05;;;;;;;0.20;0.20;;;;;;;5.56;66.83;94978.47;5050638;28;20230;-73
2024/01/26 04:15:32;;;;;;;0.20;0.20;;;;;;;6.00;76.67;94993.53;5050733;28;20214;-72
2024/01/26 04:18:00;;;;;;;3.20;1.55;;;;;;;6.62;74.10;94983.47;5050996;28;20208;-73
2024/01/26 04:20:27;;;;;;;0.20;0.20;;;;;;;6.38;68.45;95005.09;5049772;28;20200;-72
2024/01/26 04:22:54;;;;;;;0.40;0.40;;;;;;;6.11;64.31;94986.91;5053041;28;20211;-73
2024/01/26 04:25:22;;;;;;;0.20;0.20;;;;;;;6.02;65.47;95002.06;5054987;28;20224;-74
2024/01/26 04:27:49;;;;;;;0.40;0.40;;;;;;;5.92;64.86;94996.84;5054600;28;20216;-75
2024/01/26 04:30:16;;;;;;;0.20;0.20;;;;;;;5.90;64.71;94997.13;5034346;28;20212;-75
2024/01/26 04:32:43;;;;;;;0.55;0.50;;;;;;;5.67;65.00;95006.00;5033672;28;20236;-74
2024/01/26 04:35:11;;;;;;;0.77;0.77;;;;;;;5.72;65.60;95006.75;5053518;28;20267;-74
2024/01/26 04:37:38;;;;;;;0.30;0.30;;;;;;;5.80;65.43;95020.63;5049728;28;20216;-74
2024/01/26 04:40:07;;;;;;;0.20;0.20;;;;;;;5.86;65.75;95003.34;5041365;28;20250;-75
2024/01/26 04:42:35;;;;;;;0.30;0.30;;;;;;;5.77;64.96;95010.44;5053820;28;20290;-76
2024/01/26 04:45:02;;;;;;;1.33;0.75;;;;;;;5.71;65.38;95005.16;5053783;28;20561;-75
2024/01/26 04:47:29;;;;;;;0.20;0.20;;;;;;;5.69;65.58;95018.06;5052576;28;20265;-75
2024/01/26 04:49:55;;;;;;;0.20;0.20;;;;;;;5.63;66.13;95011.13;5033985;28;20553;-75
2024/01/26 04:52:21;;;;;;;0.40;0.40;;;;;;;5.66;65.04;95017.84;5048737;28;20231;-76
2024/01/26 04:54:48;;;;;;;0.20;0.20;;;;;;;5.59;65.23;95015.50;5053807;28;20203;-76
2024/01/26 04:57:15;;;;;;;0.28;0.28;;;;;;;5.58;66.00;95029.22;5051996;28;20214;-75
2024/01/26 04:59:43;;;;;;;0.50;0.50;;;;;;;5.70;65.20;95011.59;5042050;28;20219;-75
2024/01/26 05:02:10;;;;;;;0.20;0.20;;;;;;;5.52;65.85;95023.09;5053522;28;20265;-73
2024/01/26 05:04:37;;;;;;;0.30;0.30;;;;;;;5.44;66.33;95029.09;5053791;28;20214;-73
2024/01/26 05:07:04;;;;;;;0.20;0.20;;;;;;;5.49;66.15;95026.34;5053689;28;20215;-74
2024/01/26 05:09:31;;;;;;;0.47;0.47;;;;;;;5.44;66.55;95028.31;5053675;28;20207;-74
2024/01/26 05:11:58;;;;;;;0.22;0.22;;;;;;;5.43;66.65;95034.75;5052924;28;20247;-75
2024/01/26 05:14:25;;;;;;;0.20;0.20;;;;;;;5.40;67.02;95022.69;5040925;28;20217;-76
2024/01/26 05:16:53;;;;;;;0.30;0.30;;;;;;;5.47;67.14;95043.84;5033463;28;20204;-75
2024/01/26 05:19:20;;;;;;;0.30;0.30;;;;;;;5.32;67.36;95042.13;5041791;28;20207;-75
2024/01/26 05:21:46;;;;;;;0.22;0.22;;;;;;;5.40;68.00;95028.06;5052749;28;20277;-76
2024/01/26 05:24:13;;;;;;;0.20;0.20;;;;;;;5.36;66.93;95027.81;5037465;28;20215;-74
2024/01/26 05:26:40;;;;;;;0.30;0.30;;;;;;;5.31;67.00;95029.78;5032411;28;20204;-75
2024/01/26 05:29:07;;;;;;;0.65;0.65;;;;;;;5.31;66.88;95040.53;5042025;28;20203;-75
2024/01/26 05:31:35;;;;;;;0.20;0.20;;;;;;;5.27;67.31;95032.22;5040123;28;20586;-75
2024/01/26 05:34:03;;;;;;;0.20;0.20;;;;;;;5.36;67.01;95035.09;5034816;28;20232;-74
2024/01/26 05:36:30;;;;;;;0.20;0.20;;;;;;;5.16;67.45;95035.31;5037322;28;20294;-74
2024/01/26 05:38:56;;;;;;;0.98;0.95;;;;;;;5.16;67.94;95027.25;5037877;28;20212;-75
2024/01/26 05:41:23;;;;;;;0.20;0.20;;;;;;;5.20;67.08;95042.50;5041285;28;20516;-75
2024/01/26 05:43:50;;;;;;;0.28;0.28;;;;;;;5.17;66.80;95026.16;5033150;28;20621;-73
2024/01/26 05:46:17;;;;;;;0.22;0.22;;;;;;;5.19;66.75;95046.28;5037724;28;20204;-73
2024/01/26 05:48:45;;;;;;;0.30;0.30;;;;;;;5.17;66.77;95040.41;5042016;28;20211;-76
2024/01/26 05:51:14;;;;;;;0.20;0.20;;;;;;;5.22;67.20;95043.00;5051654;28;20626;-75
2024/01/26 05:53:40;;;;;;;0.25;0.25;;;;;;;5.14;66.80;95050.88;5052457;28;20234;-75
2024/01/26 05:56:07;;;;;;;0.20;0.20;;;;;;;5.12;67.21;95064.59;5026619;28;20269;-73
2024/01/26 05:58:34;;;;;;;0.22;0.22;;;;;;;5.15;66.75;95053.28;5052047;28;20207;-74
2024/01/26 06:01:01;;;;;;;1.65;1.45;;;;;;;5.17;67.06;95044.97;5038784;28;20296;-73
2024/01/26 06:03:28;;;;;;;0.52;0.43;;;;;;;5.07;66.99;95053.09;5024407;28;20254;-75
2024/01/26 06:05:55;;;;;;;0.20;0.20;;;;;;;5.15;67.02;95047.13;5018189;28;20220;-77
2024/01/26 06:08:24;;;;;;;0.40;0.40;;;;;;;5.12;67.25;95053.06;5032685;28;20258;-77
2024/01/26 06:10:51;;;;;;;1.65;0.45;;;;;;;5.18;66.77;95017.03;5033808;28;20243;-76
2024/01/26 06:13:18;;;;;;;0.20;0.20;;;;;;;5.26;66.77;95051.31;5029990;28;20234;-76
2024/01/26 06:15:45;;;;;;;0.13;0.13;;;;;;;5.33;66.19;95065.19;5033449;28;20204;-78
2024/01/26 06:18:12;;;;;;;0.22;0.22;;;;;;;5.34;66.25;95058.75;5044748;28;20216;-79
2024/01/26 06:20:39;;;;;;;0.20;0.20;;;;;;;5.54;65.77;95063.13;5039521;28;20200;-76
2024/01/26 06:23:06;;;;;;;0.45;0.45;;;;;;;5.47;65.60;95066.13;5051924;28;20630;-78
2024/01/26 06:25:35;;;;;;;0.20;0.20;;;;;;;5.94;64.56;95073.44;5049573;28;20203;-78
2024/01/26 06:28:02;;;;;;;0.30;0.30;;;;;;;5.94;64.57;95070.75;5051897;28;20211;-77
2024/01/26 06:30:29;;;;;;;0.30;0.30;;;;;;;5.85;64.85;95077.03;5042959;28;20207;-78
2024/01/26 06:32:56;;;;;;;0.20;0.20;;;;;;;5.74;64.89;95075.53;5045713;28;20293;-76
2024/01/26 06:35:22;;;;;;;0.20;0.20;;;;;;;6.03;65.15;95084.34;5044089;28;20208;-77
2024/01/26 06:37:49;;;;;;;0.20;0.20;;;;;;;6.45;63.60;95072.78;5030542;28;20206;-75
2024/01/26 06:40:16;;;;;;;0.20;0.20;;;;;;;6.58;62.04;95079.31;5041107;28;20607;-75
2024/01/26 06:42:44;;;;;;;0.20;0.20;;;;;;;6.31;63.20;95075.38;5050519;28;20207;-74
2024/01/26 06:45:13;;;;;;;0.20;0.20;;;;;;;6.53;62.24;95082.09;5051516;28;20204;-75
2024/01/26 06:47:40;;;;;;;0.20;0.20;;;;;;;6.69;61.41;95103.16;5051403;28;20199;-75
2024/01/26 06:50:08;;;;;;;0.20;0.20;;;;;;;6.68;61.69;95096.16;5051815;28;20212;-74
2024/01/26 06:52:35;;;;;;;0.60;0.60;;;;;;;6.60;61.82;95104.06;5048212;28;22194;-74
2024/01/26 06:55:02;;;;;;;0.20;0.20;;;;;;;6.54;61.96;95105.25;5041760;28;20211;-74
2024/01/26 06:57:29;;;;;;;0.20;0.20;;;;;;;6.36;62.64;95102.25;5034265;28;20254;-74
2024/01/26 06:59:57;;;;;;;0.20;0.20;;;;;;;6.55;62.28;95098.78;5042219;28;20211;-74
2024/01/26 07:02:24;;;;;;;0.20;0.20;;;;;;;6.22;62.55;95106.72;5051794;28;20211;-74
2024/01/26 07:04:50;;;;;;;0.20;0.20;;;;;;;6.08;62.63;95103.13;5051153;28;20203;-74
2024/01/26 07:07:17;;;;;;;0.30;0.30;;;;;;;5.86;63.33;95100.13;5051553;28;20753;-72
2024/01/26 07:09:44;;;;;;;0.95;0.60;;;;;;;6.02;63.62;95109.63;5051889;28;20203;-72
2024/01/26 07:12:11;;;;;;;0.30;0.30;;;;;;;6.07;63.11;95102.31;5051493;28;20583;-74
2024/01/26 07:14:38;;;;;;;0.20;0.20;;;;;;;6.13;62.78;95113.84;5051274;28;20235;-74
2024/01/26 07:17:07;;;;;;;0.20;0.20;;;;;;;6.10;63.26;95106.34;5051715;28;20580;-73
2024/01/26 07:19:34;;;;;;;0.20;0.20;;;;;;;6.10;62.45;95117.09;5051413;28;20208;-74
2024/01/26 07:22:00;;;;;;;0.20;0.20;;;;;;;6.06;62.52;95116.06;5051246;28;20219;-74
2024/01/26 07:24:27;;;;;;;0.20;0.20;;;;;;;6.34;62.88;95117.88;5051385;28;20227;-73
2024/01/26 07:26:54;;;;;;;4.43;0.45;;;;;;;6.02;62.33;95112.31;5051184;28;20216;-74
2024/01/26 07:29:21;;;;;;;0.20;0.20;;;;;;;6.28;62.43;95123.63;5051044;28;20247;-74
2024/01/26 07:31:48;;;;;;;0.20;0.20;;;;;;;6.22;61.91;95132.81;5051564;28;20745;-75
2024/01/26 07:34:16;;;;;;;0.75;0.73;;;;;;;6.08;62.19;95130.03;5051483;28;20231;-74
2024/01/26 07:36:42;;;;;;;0.30;0.30;;;;;;;6.04;61.30;95126.28;5050877;28;20211;-74
2024/01/26 07:39:10;;;;;;;0.20;0.20;;;;;;;6.08;62.06;95132.72;5033921;28;20235;-75
2024/01/26 07:41:37;;;;;;;0.20;0.20;;;;;;;6.12;62.10;95136.44;5050300;28;20237;-74
2024/01/26 07:44:03;;;;;;;0.20;0.20;;;;;;;6.32;62.22;95141.56;5049589;28;20218;-74
2024/01/26 07:46:30;;;;;;;0.20;0.20;;;;;;;6.11;62.02;95134.03;5051261;28;20212;-74
2024/01/26 07:48:57;;;;;;;0.20;0.20;;;;;;;6.31;62.27;95134.56;5051138;28;20219;-76
2024/01/26 07:51:25;;;;;;;0.20;0.20;;;;;;;6.14;62.32;95139.66;5049342;28;20211;-75
2024/01/26 07:53:52;;;;;;;1.80;1.70;;;;;;;6.29;61.93;95152.09;5049327;28;20343;-76
2024/01/26 07:56:19;;;;;;;0.82;0.82;;;;;;;6.11;61.45;95142.91;5050415;28;20291;-75
2024/01/26 07:58:46;;;;;;;0.20;0.20;;;;;;;6.40;61.97;95153.59;5041459;28;20208;-73
2024/01/26 08:01:13;;;;;;;0.20;0.20;;;;;;;6.41;61.07;95155.19;5055337;28;20531;-75
2024/01/26 08:03:40;;;;;;;0.30;0.30;;;;;;;6.64;60.96;95154.34;5055051;28;20564;-74
2024/01/26 08:06:08;;;;;;;0.43;0.43;;;;;;;6.86;60.64;95158.34;5054364;28;20265;-72
2024/01/26 08:08:36;;;;;;;0.20;0.20;;;;;;;6.73;60.43;95160.69;5054716;28;20242;-74
2024/01/26 08:11:03;;;;;;;0.77;0.40;;;;;;;6.57;60.92;95170.03;5054997;28;20248;-73
2024/01/26 08:13:29;;;;;;;0.20;0.20;;;;;;;6.69;60.16;95161.56;5054845;28;20614;-74
2024/01/26 08:15:56;;;;;;;0.22;0.22;;;;;;;6.26;61.49;95161.56;5054720;28;20537;-72
2024/01/26 08:18:23;;;;;;;0.20;0.20;;;;;;;6.30;61.98;95170.63;5055100;28;20277;-76
2024/01/26 08:20:50;;;;;;;0.20;0.20;;;;;;;6.26;61.85;95166.94;5055365;28;20600;-73
2024/01/26 08:23:17;;;;;;;0.28;0.28;;;;;;;6.14;62.40;95163.84;5054631;28;20291;-73
2024/01/26 08:25:45;;;;;;;0.28;0.28;;;;;;;6.23;62.27;95164.81;5055122;28;20222;-72
2024/01/26 08:28:12;;;;;;;0.20;0.20;;;;;;;6.34;61.74;95166.28;5054082;28;20212;-75
2024/01/26 08:30:41;;;;;;;0.88;0.30;;;;;;;6.45;61.52;95155.41;5053688;28;20207;-74
2024/01/26 08:33:09;;;;;;;0.45;0.30;;;;;;;6.60;61.87;95164.09;5054311;28;20243;-75
2024/01/26 08:35:35;;;;;;;0.22;0.22;;;;;;;6.40;61.96;95180.50;5054923;28;20261;-74
2024/01/26 08:38:03;;;;;;;0.20;0.20;;;;;;;6.18;62.64;95164.84;5047150;28;20603;-74
2024/01/26 08:40:30;;;;;;;0.20;0.20;;;;;;;6.35;62.58;95178.66;5045001;28;20215;-73
2024/01/26 08:42:58;;;;;;;0.20;0.20;;;;;;;6.00;64.18;95168.31;5054150;28;20218;-74
2024/01/26 08:45:25;;;;;;;0.20;0.20;;;;;;;6.28;63.68;95182.78;5054453;28;20200;-73
2024/01/26 08:47:52;;;;;;;0.20;0.20;;;;;;;6.28;63.60;95178.22;5054156;28;20208;-73
2024/01/26 08:50:19;;;;;;;0.57;0.55;;;;;;;6.53;62.43;95168.22;5054534;28;20261;-74
2024/01/26 08:52:46;;;;;;;0.20;0.20;;;;;;;6.70;63.10;95172.00;5054410;28;20269;-75
2024/01/26 08:55:13;;;;;;;0.20;0.20;;;;;;;6.61;62.78;95172.97;5054445;28;20592;-73
2024/01/26 08:57:40;;;;;;;0.20;0.20;;;;;;;6.42;62.35;95173.72;5053970;28;20222;-73
2024/01/26 09:00:12;;;;;;;0.30;0.30;;;;;;;6.85;62.54;95168.31;5054098;28;20269;-73
2024/01/26 09:02:39;;;;;;;0.20;0.20;;;;;;;6.90;61.03;95170.16;5054246;28;20212;-72
2024/01/26 09:05:07;;;;;;;0.20;0.20;;;;;;;7.40;61.67;95179.38;5054613;28;20595;-73
2024/01/26 09:07:34;;;;;;;0.20;0.20;;;;;;;7.03;60.82;95175.63;5054009;28;20598;-75
2024/01/26 09:10:01;;;;;;;0.20;0.20;;;;;;;7.08;60.74;95172.84;5052511;28;20723;-73
2024/01/26 09:12:28;;;;;;;0.20;0.20;;;;;;;6.86;60.97;95182.59;5053477;28;20694;-74
2024/01/26 09:14:55;;;;;;;0.55;0.55;;;;;;;7.06;61.01;95179.63;5053957;28;20231;-75
2024/01/26 09:17:23;;;;;;;0.30;0.30;;;;;;;6.81;60.21;95179.97;5053892;28;20208;-75
2024/01/26 09:19:50;;;;;;;0.20;0.20;;;;;;;6.46;62.00;95179.34;5053559;28;20564;-75
2024/01/26 09:22:17;;;;;;;0.20;0.20;;;;;;;6.65;62.39;95176.69;5053953;28;20215;-73
2024/01/26 09:24:44;;;;;;;0.20;0.20;;;;;;;6.34;62.19;95179.75;5038976;28;20208;-74
2024/01/26 09:27:10;;;;;;;0.30;0.30;;;;;;;6.79;61.24;95180.28;5041307;28;20218;-73
2024/01/26 09:29:38;;;;;;;0.28;0.28;;;;;;;6.61;62.57;95170.25;5053126;28;20211;-72
2024/01/26 09:32:05;;;;;;;0.20;0.20;;;;;;;6.63;62.25;95157.31;5054065;28;20246;-73
2024/01/26 09:34:33;;;;;;;0.20;0.20;;;;;;;6.89;61.11;95166.66;5052739;28;20236;-75
2024/01/26 09:37:00;;;;;;;0.10;0.10;;;;;;;6.91;61.20;95164.47;5053527;28;20220;-72
2024/01/26 09:39:27;;;;;;;0.13;0.13;;;;;;;7.06;61.22;95166.16;5036036;28;20527;-72
2024/01/26 09:41:55;;;;;;;0.20;0.20;;;;;;;7.07;61.79;95173.94;5044084;28;20295;-74
2024/01/26 09:44:22;;;;;;;0.30;0.30;;;;;;;6.76;61.72;95175.47;5038144;28;20255;-71
2024/01/26 09:46:49;;;;;;;0.20;0.20;;;;;;;6.96;62.04;95177.09;5051637;28;20265;-72
2024/01/26 09:49:16;;;;;;;0.20;0.20;;;;;;;6.83;62.45;95156.25;5052630;28;20215;-77
2024/01/26 09:51:44;;;;;;;0.20;0.20;;;;;;;7.07;60.70;95157.78;5053100;28;20211;-73
2024/01/26 09:54:13;;;;;;;0.90;0.40;;;;;;;6.80;61.63;95141.47;5053027;28;20243;-72
2024/01/26 09:56:42;;;;;;;0.20;0.20;;;;;;;7.39;60.88;95142.72;5053136;28;20234;-74
2024/01/26 09:59:11;;;;;;;2.70;0.55;;;;;;;7.09;60.49;95142.13;5052483;28;20302;-74
2024/01/26 10:01:39;;;;;;;0.20;0.20;;;;;;;7.42;59.39;95136.75;5052924;28;20600;-74
2024/01/26 10:04:08;;;;;;;0.30;0.30;;;;;;;7.38;58.51;95133.06;5051758;28;20673;-74
2024/01/26 10:06:35;;;;;;;0.47;0.47;;;;;;;6.82;60.14;95144.69;5052278;28;20204;-74
2024/01/26 10:09:04;;;;;;;0.20;0.20;;;;;;;6.68;60.97;95133.03;5052424;28;20211;-73
2024/01/26 10:11:31;;;;;;;0.20;0.20;;;;;;;6.74;60.98;95137.25;5052578;28;20235;-73
2024/01/26 10:13:57;;;;;;;0.85;0.85;;;;;;;6.70;60.77;95125.44;5052190;28;20309;-72
2024/01/26 10:16:24;;;;;;;0.20;0.20;;;;;;;7.03;60.16;95102.09;5052525;28;20215;-73
2024/01/26 10:18:51;;;;;;;0.30;0.30;;;;;;;6.71;60.70;95097.44;5052224;28;20825;-73
2024/01/26 10:21:20;;;;;;;1.55;0.73;;;;;;;6.77;61.13;95109.75;5052386;28;20219;-73
2024/01/26 10:23:47;;;;;;;0.28;0.28;;;;;;;6.97;61.76;95101.34;5052299;28;20219;-74
2024/01/26 10:26:16;;;;;;;0.20;0.20;;;;;;;7.02;61.12;95100.47;5052099;28;20581;-75
2024/01/26 10:28:44;;;;;;;0.30;0.30;;;;;;;6.95;60.06;95108.94;5052414;28;20208;-73
2024/01/26 10:31:11;;;;;;;0.20;0.20;;;;;;;6.93;60.45;95100.34;5051809;28;20269;-72
2024/01/26 10:33:40;;;;;;;1.85;0.73;;;;;;;7.10;60.02;95103.34;5052161;28;20234;-74
2024/01/26 10:36:13;;;;;;;0.20;0.20;;;;;;;7.05;61.12;95087.25;5052125;28;20207;-73
2024/01/26 10:38:42;;;;;;;1.45;0.70;;;;;;;6.93;60.03;95084.19;5039997;28;20192;-74
2024/01/26 10:41:15;;;;;;;0.20;0.20;;;;;;;6.87;60.22;95085.34;5048268;28;20790;-74
2024/01/26 10:43:47;;;;;;;1.10;1.10;;;;;;;6.84;60.89;95082.44;5052012;28;20215;-74
2024/01/26 10:46:16;;;;;;;0.20;0.20;;;;;;;6.94;61.13;95085.81;5049108;28;20211;-74
2024/01/26 10:48:44;;;;;;;0.50;0.50;;;;;;;7.00;60.74;95063.06;5040246;28;20200;-74
2024/01/26 10:51:13;;;;;;;0.25;0.25;;;;;;;7.38;59.62;95071.09;5037966;28;20230;-74
2024/01/26 10:53:44;;;;;;;0.20;0.20;;;;;;;7.47;59.39;95085.47;5051607;28;20215;-74
2024/01/26 10:56:11;;;;;;;0.20;0.20;;;;;;;7.17;59.75;95086.78;5051686;28;20564;-73
2024/01/26 10:58:38;;;;;;;1.00;1.00;;;;;;;6.69;59.54;95088.88;5052092;28;20207;-74
2024/01/26 11:01:07;;;;;;;0.30;0.30;;;;;;;6.48;59.83;95099.13;5043637;28;20212;-74
2024/01/26 11:03:34;;;;;;;0.20;0.20;;;;;;;6.46;60.21;95097.81;5047254;28;20644;-74
2024/01/26 11:06:01;;;;;;;0.20;0.20;;;;;;;6.66;60.22;95081.38;5042752;28;20203;-72
2024/01/26 11:08:30;;;;;;;0.20;0.20;;;;;;;7.01;58.94;95066.56;5047369;28;20210;-73
2024/01/26 11:10:57;;;;;;;0.20;0.20;;;;;;;7.08;59.50;95067.00;5051619;28;20242;-73
2024/01/26 11:13:24;;;;;;;0.30;0.30;;;;;;;7.14;59.37;95077.38;5051361;28;20284;-74
2024/01/26 11:15:52;;;;;;;0.35;0.35;;;;;;;7.23;58.58;95063.25;5051027;28;20231;-74
2024/01/26 11:18:25;;;;;;;0.20;0.20;;;;;;;7.51;57.39;95054.13;5051168;28;20219;-73
2024/01/26 11:20:52;;;;;;;0.30;0.30;;;;;;;7.53;57.60;95062.69;5051493;28;20238;-74
2024/01/26 11:23:20;;;;;;;0.60;0.60;;;;;;;7.26;57.86;95062.63;5051633;28;20219;-73
2024/01/26 11:25:49;;;;;;;0.20;0.20;;;;;;;7.10;58.40;95060.22;5050899;28;20233;-75
2024/01/26 11:28:18;;;;;;;1.30;0.30;;;;;;;7.07;58.92;95063.50;5051823;28;20277;-74
2024/01/26 11:30:52;;;;;;;0.20;0.20;;;;;;;7.05;58.94;95052.22;5051060;28;20207;-75
2024/01/26 11:33:21;;;;;;;0.20;0.20;;;;;;;7.00;59.23;95038.81;5050768;28;20264;-75
2024/01/26 11:35:50;;;;;;;0.30;0.30;;;;;;;7.20;59.68;95034.19;5050837;28;20231;-74
2024/01/26 11:38:18;;;;;;;0.20;0.20;;;;;;;7.47;59.70;95035.06;5042398;28;20232;-73
2024/01/26 11:40:46;;;;;;;1.48;0.65;;;;;;;7.20;59.24;95026.13;5044376;28;20211;-74
2024/01/26 11:43:13;;;;;;;0.20;0.20;;;;;;;7.11;59.65;95034.88;5051619;28;20234;-73